createdAt,value
2018-09-29T00:01:22.310Z,21.10
2018-09-29T00:03:50.390Z,20.98
2018-09-29T00:06:19.858Z,21.11
2018-09-29T00:08:47.993Z,21.11
2018-09-29T00:11:16.098Z,21.08
2018-09-29T00:13:44.199Z,21.08
2018-09-29T00:16:12.525Z,21.11
2018-09-29T00:18:40.556Z,21.08
2018-09-29T00:21:09.462Z,21.08
2018-09-29T00:23:38.645Z,21.05
2018-09-29T00:26:06.671Z,21.09
2018-09-29T00:28:34.652Z,21.06
2018-09-29T00:31:02.751Z,21.04
2018-09-29T00:33:30.732Z,21.07
2018-09-29T00:35:59.973Z,21.03
2018-09-29T00:38:27.943Z,21.01
2018-09-29T00:40:55.926Z,21.00
2018-09-29T00:43:23.902Z,21.01
2018-09-29T00:45:52.011Z,20.99
2018-09-29T00:48:20.357Z,20.99
2018-09-29T00:50:48.598Z,20.95
2018-09-29T00:53:16.686Z,20.98
2018-09-29T00:55:44.777Z,20.99
2018-09-29T00:58:12.748Z,21.00
2018-09-29T01:00:40.808Z,20.97
2018-09-29T01:03:08.945Z,20.98
2018-09-29T01:05:37.134Z,20.96
2018-09-29T01:08:05.369Z,20.92
2018-09-29T01:10:33.528Z,20.95
2018-09-29T01:13:01.619Z,20.95
2018-09-29T01:15:29.699Z,20.93
2018-09-29T01:18:00.788Z,20.92
2018-09-29T01:20:29.762Z,20.88
2018-09-29T01:22:58.268Z,20.86
2018-09-29T01:25:26.357Z,20.91
2018-09-29T01:27:54.346Z,20.92
2018-09-29T01:30:22.751Z,20.92
2018-09-29T01:32:50.709Z,20.92
2018-09-29T01:35:18.909Z,20.91
2018-09-29T01:37:47.002Z,20.93
2018-09-29T01:40:14.969Z,20.88
2018-09-29T01:42:44.115Z,20.86
2018-09-29T01:45:12.193Z,20.87
2018-09-29T01:47:40.388Z,20.92
2018-09-29T01:50:08.371Z,20.93
2018-09-29T01:52:36.448Z,20.86
2018-09-29T01:55:04.572Z,20.88
2018-09-29T01:57:32.622Z,20.92
2018-09-29T02:00:00.720Z,20.91
2018-09-29T02:02:28.719Z,20.86
2018-09-29T02:04:56.916Z,20.88
2018-09-29T02:07:26.139Z,20.86
2018-09-29T02:09:54.210Z,20.85
2018-09-29T02:12:22.295Z,20.84
2018-09-29T02:14:50.383Z,20.91
2018-09-29T02:17:18.321Z,20.88
2018-09-29T02:19:46.461Z,20.85
2018-09-29T02:22:14.572Z,20.85
2018-09-29T02:24:42.970Z,20.86
2018-09-29T02:27:11.028Z,20.82
2018-09-29T02:29:39.221Z,20.81
2018-09-29T02:32:07.227Z,20.83
2018-09-29T02:34:35.206Z,20.87
2018-09-29T02:37:03.236Z,20.88
2018-09-29T02:39:31.388Z,20.91
2018-09-29T02:41:59.464Z,20.85
2018-09-29T02:44:27.344Z,20.86
2018-09-29T02:46:55.346Z,20.87
2018-09-29T02:49:24.013Z,20.82
2018-09-29T02:51:52.132Z,20.83
2018-09-29T02:54:20.218Z,20.80
2018-09-29T02:56:48.206Z,20.82
2018-09-29T02:59:16.295Z,20.81
2018-09-29T03:01:44.741Z,20.84
2018-09-29T03:04:12.782Z,20.84
2018-09-29T03:06:40.782Z,20.80
2018-09-29T03:09:09.578Z,20.81
2018-09-29T03:11:37.877Z,20.81
2018-09-29T03:14:06.062Z,20.77
2018-09-29T03:16:34.164Z,20.79
2018-09-29T03:19:02.468Z,20.82
2018-09-29T03:21:30.557Z,20.79
2018-09-29T03:23:58.622Z,20.78
2018-09-29T03:26:26.623Z,20.79
2018-09-29T03:28:54.597Z,20.79
2018-09-29T03:31:23.140Z,20.75
2018-09-29T03:33:51.096Z,20.77
2018-09-29T03:36:19.517Z,20.77
2018-09-29T03:38:47.592Z,20.76
2018-09-29T03:41:15.774Z,20.77
2018-09-29T03:43:43.875Z,20.66
2018-09-29T03:46:12.576Z,20.79
2018-09-29T03:48:40.680Z,20.77
2018-09-29T03:51:08.839Z,20.71
2018-09-29T03:53:37.659Z,20.69
2018-09-29T03:56:05.616Z,20.71
2018-09-29T03:58:33.715Z,20.75
2018-09-29T04:01:01.843Z,20.75
2018-09-29T04:03:29.901Z,20.71
2018-09-29T04:05:57.982Z,20.68
2018-09-29T04:08:26.089Z,20.67
2018-09-29T04:10:54.635Z,20.65
2018-09-29T04:13:22.880Z,20.68
2018-09-29T04:15:51.042Z,20.72
2018-09-29T04:18:19.360Z,20.69
2018-09-29T04:20:47.373Z,20.70
2018-09-29T04:23:15.337Z,20.66
2018-09-29T04:25:44.153Z,20.68
2018-09-29T04:28:13.952Z,20.68
2018-09-29T04:30:42.070Z,20.69
2018-09-29T04:33:10.146Z,20.73
2018-09-29T04:35:38.129Z,20.76
2018-09-29T04:38:06.195Z,20.91
2018-09-29T04:40:34.305Z,21.05
2018-09-29T04:43:02.419Z,21.15
2018-09-29T04:45:30.485Z,21.21
2018-09-29T04:47:58.591Z,21.24
2018-09-29T04:50:26.778Z,21.31
2018-09-29T04:52:54.705Z,21.35
2018-09-29T04:55:22.960Z,21.50
2018-09-29T04:57:50.936Z,21.59
2018-09-29T05:00:18.946Z,21.58
2018-09-29T05:02:46.904Z,21.62
2018-09-29T05:05:14.922Z,21.62
2018-09-29T05:07:43.017Z,21.61
2018-09-29T05:10:10.972Z,21.57
2018-09-29T05:12:38.959Z,21.56
2018-09-29T05:15:07.200Z,21.53
2018-09-29T05:17:35.253Z,21.53
2018-09-29T05:20:05.003Z,21.52
2018-09-29T05:22:32.943Z,21.48
2018-09-29T05:25:00.977Z,21.01
2018-09-29T05:27:44.901Z,20.71
2018-09-29T05:33:00.357Z,20.87
2018-09-29T05:35:32.631Z,20.97
2018-09-29T05:38:14.165Z,20.99
2018-09-29T05:43:53.804Z,21.05
2018-09-29T05:46:29.106Z,21.04
2018-09-29T05:49:33.096Z,21.01
2018-09-29T05:52:03.070Z,20.99
2018-09-29T06:01:55.948Z,21.26
2018-09-29T06:04:26.453Z,21.30
2018-09-29T06:07:06.503Z,21.33
2018-09-29T06:09:46.222Z,21.32
2018-09-29T06:12:14.736Z,21.14
2018-09-29T06:14:56.366Z,21.10
2018-09-29T06:17:57.817Z,21.06
2018-09-29T06:20:39.885Z,21.04
2018-09-29T06:29:02.317Z,20.81
2018-09-29T06:31:42.065Z,20.77
2018-09-29T06:34:16.283Z,20.64
2018-09-29T06:37:13.969Z,20.72
2018-09-29T06:39:42.224Z,20.74
2018-09-29T06:42:10.327Z,20.69
2018-09-29T06:44:38.399Z,20.63
2018-09-29T06:47:06.686Z,20.58
2018-09-29T06:49:34.778Z,20.57
2018-09-29T06:52:03.669Z,20.55
2018-09-29T06:54:32.842Z,20.55
2018-09-29T06:57:00.989Z,20.53
2018-09-29T06:59:28.967Z,20.50
2018-09-29T07:01:57.057Z,20.45
2018-09-29T07:04:25.148Z,20.48
2018-09-29T07:06:55.291Z,20.51
2018-09-29T07:09:23.377Z,20.55
2018-09-29T07:11:51.428Z,20.57
2018-09-29T07:14:19.361Z,20.63
2018-09-29T07:16:47.951Z,20.65
2018-09-29T07:19:16.077Z,20.66
2018-09-29T07:21:44.162Z,20.70
2018-09-29T07:24:12.198Z,20.70
2018-09-29T07:26:40.355Z,20.69
2018-09-29T07:29:09.016Z,20.70
2018-09-29T07:31:37.204Z,20.71
2018-09-29T07:34:05.194Z,20.73
2018-09-29T07:36:33.301Z,20.74
2018-09-29T07:39:02.639Z,20.74
2018-09-29T07:41:30.684Z,20.74
2018-09-29T07:43:58.790Z,20.79
2018-09-29T07:46:26.861Z,20.82
2018-09-29T07:48:54.962Z,20.81
2018-09-29T07:51:23.047Z,20.80
2018-09-29T07:53:51.850Z,20.78
2018-09-29T07:56:19.874Z,20.75
2018-09-29T07:58:48.139Z,20.78
2018-09-29T08:01:16.847Z,20.80
2018-09-29T08:03:44.936Z,20.77
2018-09-29T08:06:13.052Z,20.77
2018-09-29T08:08:41.944Z,20.80
2018-09-29T08:11:10.548Z,20.81
2018-09-29T08:13:38.608Z,20.80
2018-09-29T08:16:06.819Z,20.82
2018-09-29T08:18:34.886Z,20.84
2018-09-29T08:21:02.988Z,20.82
2018-09-29T08:23:30.980Z,20.81
2018-09-29T08:26:00.011Z,20.79
2018-09-29T08:28:28.091Z,20.83
2018-09-29T08:30:56.732Z,20.86
2018-09-29T08:33:24.710Z,20.88
2018-09-29T08:35:52.865Z,20.89
2018-09-29T08:38:22.167Z,20.92
2018-09-29T08:40:50.261Z,20.94
2018-09-29T08:43:18.350Z,20.95
2018-09-29T08:45:46.445Z,20.96
2018-09-29T08:48:14.528Z,20.96
2018-09-29T08:50:42.526Z,20.99
2018-09-29T08:53:10.512Z,20.99
2018-09-29T08:55:39.050Z,21.00
2018-09-29T08:58:07.090Z,21.01
2018-09-29T09:00:35.080Z,21.02
2018-09-29T09:03:03.573Z,21.02
2018-09-29T09:05:31.562Z,21.03
2018-09-29T09:08:01.073Z,21.02
2018-09-29T09:10:29.075Z,21.01
2018-09-29T09:12:57.104Z,21.03
2018-09-29T09:15:25.051Z,21.00
2018-09-29T09:17:53.049Z,20.99
2018-09-29T09:20:21.129Z,21.00
2018-09-29T09:22:49.128Z,21.01
2018-09-29T09:25:17.353Z,21.03
2018-09-29T09:30:44.819Z,21.04
2018-09-29T09:33:25.647Z,21.02
2018-09-29T09:35:57.024Z,21.03
2018-09-29T09:38:49.128Z,21.01
2018-09-29T09:41:28.932Z,20.91
2018-09-29T09:44:01.113Z,20.83
2018-09-29T09:46:32.660Z,20.80
2018-09-29T09:51:43.759Z,20.75
2018-09-29T09:54:21.592Z,20.78
2018-09-29T09:57:01.548Z,20.76
2018-09-29T10:02:21.199Z,20.83
2018-09-29T10:04:49.196Z,20.88
2018-09-29T10:07:17.312Z,20.93
2018-09-29T10:09:45.390Z,20.97
2018-09-29T10:12:13.461Z,20.99
2018-09-29T10:14:41.654Z,21.03
2018-09-29T10:17:09.629Z,21.06
2018-09-29T10:19:39.397Z,21.07
2018-09-29T10:22:07.562Z,21.09
2018-09-29T10:24:35.546Z,21.10
2018-09-29T10:27:10.514Z,21.11
2018-09-29T10:29:47.317Z,21.13
2018-09-29T10:32:48.090Z,21.13
2018-09-29T10:35:17.413Z,21.16
2018-09-29T10:37:55.975Z,21.16
2018-09-29T10:40:25.170Z,21.19
2018-09-29T10:42:56.509Z,21.18
2018-09-29T10:46:13.350Z,21.19
2018-09-29T10:49:01.071Z,21.22
2018-09-29T10:54:18.904Z,21.23
2018-09-29T10:56:47.064Z,21.23
2018-09-29T10:59:15.213Z,21.24
2018-09-29T11:01:43.334Z,21.25
2018-09-29T11:04:11.442Z,21.26
2018-09-29T11:06:39.754Z,21.27
2018-09-29T11:09:08.696Z,21.26
2018-09-29T11:11:36.721Z,21.27
2018-09-29T11:14:04.706Z,21.27
2018-09-29T11:16:32.794Z,21.28
2018-09-29T11:19:00.934Z,21.26
2018-09-29T11:21:28.814Z,21.28
2018-09-29T11:23:57.286Z,21.27
2018-09-29T11:26:25.272Z,21.28
2018-09-29T11:28:53.244Z,21.31
2018-09-29T11:31:21.199Z,21.34
2018-09-29T11:33:49.231Z,21.37
2018-09-29T11:36:29.687Z,21.34
2018-09-29T11:39:10.362Z,21.33
2018-09-29T11:41:39.418Z,21.32
2018-09-29T11:47:10.280Z,21.30
2018-09-29T11:49:43.151Z,21.33
2018-09-29T11:52:22.697Z,21.34
2018-09-29T11:54:53.161Z,21.34
2018-09-29T12:00:32.893Z,21.34
2018-09-29T12:12:21.386Z,21.40
2018-09-29T12:24:11.676Z,21.42
2018-09-29T12:28:50.587Z,21.43
2018-09-29T12:31:18.767Z,21.43
2018-09-29T12:33:46.874Z,21.45
2018-09-29T12:36:14.959Z,21.43
2018-09-29T12:38:43.859Z,21.44
2018-09-29T12:41:11.936Z,21.46
2018-09-29T12:43:40.044Z,21.45
2018-09-29T12:46:08.142Z,21.46
2018-09-29T12:48:36.222Z,21.45
2018-09-29T12:51:06.360Z,21.42
2018-09-29T12:53:34.386Z,21.45
2018-09-29T12:56:02.325Z,21.45
2018-09-29T12:58:30.413Z,21.44
2018-09-29T13:00:58.512Z,21.46
2018-09-29T13:03:26.620Z,21.44
2018-09-29T13:05:54.777Z,21.44
2018-09-29T13:08:22.846Z,21.44
2018-09-29T13:10:50.953Z,21.43
2018-09-29T13:13:19.060Z,21.44
2018-09-29T13:15:47.061Z,21.43
2018-09-29T13:18:15.470Z,21.42
2018-09-29T13:20:43.426Z,21.43
2018-09-29T13:23:11.511Z,21.42
2018-09-29T13:25:39.587Z,21.41
2018-09-29T13:28:08.435Z,21.41
2018-09-29T13:30:36.597Z,21.40
2018-09-29T13:33:04.676Z,21.40
2018-09-29T13:35:32.746Z,21.40
2018-09-29T13:38:00.771Z,21.40
2018-09-29T13:40:28.733Z,21.40
2018-09-29T13:42:56.733Z,21.39
2018-09-29T13:45:24.730Z,21.41
2018-09-29T13:47:52.713Z,21.39
2018-09-29T13:50:20.798Z,21.41
2018-09-29T13:52:48.912Z,21.40
2018-09-29T13:55:16.969Z,21.39
2018-09-29T13:57:45.597Z,21.39
2018-09-29T14:00:13.789Z,21.39
2018-09-29T14:02:41.774Z,21.38
2018-09-29T14:05:10.063Z,21.38
2018-09-29T14:07:38.141Z,21.20
2018-09-29T14:10:06.459Z,21.38
2018-09-29T14:12:34.527Z,21.38
2018-09-29T14:15:02.515Z,21.38
2018-09-29T14:17:30.618Z,21.38
2018-09-29T14:19:58.710Z,21.38
2018-09-29T14:22:38.778Z,21.38
